createdAt,value
2022-12-08T00:03:07.125Z,88
2022-12-08T00:06:32.297Z,88
2022-12-08T00:09:57.617Z,88
2022-12-08T00:13:22.918Z,88
2022-12-08T00:16:48.218Z,88
2022-12-08T00:20:13.495Z,88
2022-12-08T00:23:38.783Z,88
2022-12-08T00:27:04.037Z,88
2022-12-08T00:30:29.313Z,88
2022-12-08T00:33:54.583Z,88
2022-12-08T00:37:19.840Z,89
2022-12-08T00:40:45.151Z,89
2022-12-08T00:44:10.397Z,90
2022-12-08T00:47:35.696Z,90
2022-12-08T00:51:00.960Z,90
2022-12-08T00:54:26.231Z,90
2022-12-08T00:57:51.512Z,90
2022-12-08T01:01:16.816Z,90
2022-12-08T01:04:42.085Z,90
2022-12-08T01:08:07.332Z,90
2022-12-08T01:11:32.568Z,90
2022-12-08T01:15:01.999Z,89
2022-12-08T01:18:23.134Z,89
2022-12-08T01:21:48.433Z,89
2022-12-08T01:25:13.671Z,89
2022-12-08T01:28:38.952Z,89
2022-12-08T01:32:04.190Z,89
2022-12-08T01:35:29.453Z,90
2022-12-08T01:38:54.735Z,89
2022-12-08T01:42:19.987Z,89
2022-12-08T01:45:45.285Z,89
2022-12-08T01:49:10.487Z,89
2022-12-08T01:52:35.765Z,89
2022-12-08T01:56:01.070Z,89
2022-12-08T01:59:26.303Z,89
2022-12-08T02:02:51.598Z,89
2022-12-08T02:06:16.829Z,90
2022-12-08T02:09:42.085Z,90
2022-12-08T02:13:07.398Z,90
2022-12-08T02:16:32.748Z,90
2022-12-08T02:19:57.947Z,90
2022-12-08T02:23:23.247Z,90
2022-12-08T02:26:48.503Z,90
2022-12-08T02:30:13.818Z,90
2022-12-08T02:33:39.102Z,89
2022-12-08T02:37:04.347Z,90
2022-12-08T02:40:29.673Z,90
2022-12-08T02:43:54.940Z,89
2022-12-08T02:47:20.213Z,89
2022-12-08T02:50:45.453Z,90
2022-12-08T02:54:10.760Z,90
2022-12-08T02:57:36.048Z,90
2022-12-08T03:01:01.340Z,89
2022-12-08T03:04:26.609Z,90
2022-12-08T03:07:51.936Z,90
2022-12-08T03:11:17.157Z,89
2022-12-08T03:14:42.462Z,90
2022-12-08T03:18:07.709Z,90
2022-12-08T03:21:33.028Z,90
2022-12-08T03:24:58.266Z,90
2022-12-08T03:28:23.561Z,90
2022-12-08T03:31:48.811Z,91
2022-12-08T03:35:14.044Z,91
2022-12-08T03:38:39.336Z,91
2022-12-08T03:42:04.555Z,91
2022-12-08T03:45:29.817Z,91
2022-12-08T03:48:55.093Z,91
2022-12-08T03:52:20.350Z,91
2022-12-08T03:55:45.635Z,91
2022-12-08T03:59:10.870Z,91
2022-12-08T04:02:36.168Z,91
2022-12-08T04:06:01.431Z,91
2022-12-08T04:09:26.698Z,91
2022-12-08T04:12:51.999Z,90
2022-12-08T04:16:17.287Z,90
2022-12-08T04:19:42.529Z,90
2022-12-08T04:23:07.792Z,90
2022-12-08T04:26:33.049Z,90
2022-12-08T04:29:58.456Z,91
2022-12-08T04:33:23.677Z,90
2022-12-08T04:36:48.947Z,91
2022-12-08T04:40:14.814Z,91
2022-12-08T04:43:40.015Z,91
2022-12-08T04:47:05.370Z,91
2022-12-08T04:50:30.497Z,92
2022-12-08T04:53:55.760Z,92
2022-12-08T04:57:20.979Z,92
2022-12-08T05:00:46.231Z,92
2022-12-08T05:04:11.504Z,91
2022-12-08T05:07:36.815Z,91
2022-12-08T05:11:01.999Z,91
2022-12-08T05:14:27.237Z,91
2022-12-08T05:17:52.492Z,92
2022-12-08T05:21:17.770Z,92
2022-12-08T05:24:47.331Z,91
2022-12-08T05:28:39.418Z,91
2022-12-08T05:31:33.519Z,91
2022-12-08T05:34:58.683Z,91
2022-12-08T05:38:23.960Z,90
2022-12-08T05:41:49.204Z,91
2022-12-08T05:45:14.445Z,91
2022-12-08T05:48:39.693Z,90
2022-12-08T05:52:04.948Z,90
2022-12-08T05:55:30.226Z,91
2022-12-08T05:58:55.456Z,91
2022-12-08T06:02:20.805Z,91
2022-12-08T06:05:45.989Z,91
2022-12-08T06:09:11.287Z,91
2022-12-08T06:12:36.566Z,91
2022-12-08T06:16:01.925Z,91
2022-12-08T06:19:27.258Z,91
2022-12-08T06:22:52.684Z,91
2022-12-08T06:26:18.285Z,92
2022-12-08T06:29:43.776Z,91
2022-12-08T06:33:09.087Z,90
2022-12-08T06:36:34.348Z,90
2022-12-08T06:39:59.697Z,90
2022-12-08T06:43:24.987Z,89
2022-12-08T06:46:50.248Z,89
2022-12-08T06:50:15.525Z,88
2022-12-08T06:53:40.829Z,89
2022-12-08T06:57:06.075Z,90
2022-12-08T07:00:31.332Z,91
2022-12-08T07:03:56.709Z,91
2022-12-08T07:07:21.809Z,92
2022-12-08T07:10:47.175Z,91
2022-12-08T07:14:12.419Z,90
2022-12-08T07:17:37.696Z,90
2022-12-08T07:21:03.011Z,90
2022-12-08T07:24:28.290Z,90
2022-12-08T07:27:53.571Z,90
2022-12-08T07:31:18.942Z,90
2022-12-08T07:34:46.234Z,91
2022-12-08T07:38:09.387Z,90
2022-12-08T07:41:34.628Z,90
2022-12-08T07:44:59.887Z,90
2022-12-08T07:48:25.170Z,90
2022-12-08T07:51:50.432Z,90
2022-12-08T07:55:15.715Z,91
2022-12-08T07:58:40.980Z,91
2022-12-08T08:02:23.229Z,91
2022-12-08T08:05:31.489Z,91
2022-12-08T08:08:56.789Z,91
2022-12-08T08:12:31.129Z,91
2022-12-08T08:15:47.447Z,90
2022-12-08T08:19:12.559Z,90
2022-12-08T08:22:37.802Z,90
2022-12-08T08:26:03.110Z,90
2022-12-08T08:29:28.441Z,89
2022-12-08T08:32:53.649Z,89
2022-12-08T08:36:18.832Z,89
2022-12-08T08:39:44.087Z,89
2022-12-08T08:43:09.392Z,90
2022-12-08T08:46:34.721Z,90
2022-12-08T08:49:59.939Z,90
2022-12-08T08:53:25.234Z,90
2022-12-08T08:56:50.487Z,90
2022-12-08T09:00:15.756Z,90
2022-12-08T09:03:41.037Z,90
2022-12-08T09:07:06.268Z,90
2022-12-08T09:10:31.542Z,90
2022-12-08T09:13:56.839Z,91
2022-12-08T09:17:22.152Z,90
2022-12-08T09:20:47.417Z,90
2022-12-08T09:24:12.702Z,90
2022-12-08T09:27:37.981Z,90
2022-12-08T09:31:03.294Z,89
2022-12-08T09:34:28.607Z,89
2022-12-08T09:37:53.954Z,89
2022-12-08T09:41:19.151Z,90
2022-12-08T09:44:44.430Z,89
2022-12-08T09:48:09.762Z,89
2022-12-08T09:51:35.013Z,89
2022-12-08T09:55:00.319Z,90
2022-12-08T09:58:25.494Z,90
2022-12-08T10:01:50.851Z,90
2022-12-08T10:05:16.040Z,90
2022-12-08T10:08:41.254Z,90
2022-12-08T10:12:06.496Z,90
2022-12-08T10:15:31.730Z,90
2022-12-08T10:18:56.987Z,91
2022-12-08T10:22:22.217Z,91
2022-12-08T10:25:47.480Z,90
2022-12-08T10:29:12.893Z,90
2022-12-08T10:32:38.048Z,89
2022-12-08T10:36:03.315Z,89
2022-12-08T10:39:28.557Z,89
2022-12-08T10:42:53.764Z,89
2022-12-08T10:46:19.085Z,90
2022-12-08T10:49:44.270Z,89
2022-12-08T10:53:09.525Z,89
2022-12-08T10:56:34.776Z,89
2022-12-08T11:00:00.044Z,89
2022-12-08T11:03:25.334Z,89
2022-12-08T11:06:50.586Z,90
2022-12-08T11:10:15.835Z,89
2022-12-08T11:13:41.090Z,89
2022-12-08T11:17:06.341Z,89
2022-12-08T11:20:31.625Z,89
2022-12-08T11:23:56.841Z,89
2022-12-08T11:27:22.082Z,89
2022-12-08T11:30:47.308Z,88
2022-12-08T11:34:12.567Z,88
2022-12-08T11:37:37.839Z,88
2022-12-08T11:41:03.063Z,88
2022-12-08T11:44:28.344Z,88
2022-12-08T11:47:55.897Z,88
2022-12-08T11:51:18.835Z,88
2022-12-08T11:54:44.112Z,88
2022-12-08T11:58:09.421Z,88
2022-12-08T12:01:37.963Z,87
2022-12-08T12:04:59.912Z,87
2022-12-08T12:08:25.214Z,88
2022-12-08T12:11:50.453Z,89
2022-12-08T12:15:15.694Z,88
2022-12-08T12:19:29.209Z,88
2022-12-08T12:22:54.469Z,88
2022-12-08T12:26:19.712Z,88
2022-12-08T12:29:45.071Z,88
2022-12-08T12:33:10.268Z,88
2022-12-08T12:36:35.530Z,88
2022-12-08T12:40:00.792Z,88
2022-12-08T12:43:26.052Z,88
2022-12-08T12:46:51.349Z,88
2022-12-08T12:50:16.596Z,88
2022-12-08T12:53:41.852Z,88
2022-12-08T12:57:07.162Z,89
2022-12-08T13:00:32.436Z,89
2022-12-08T13:03:57.712Z,89
2022-12-08T13:07:22.943Z,89
2022-12-08T13:10:48.192Z,89
2022-12-08T13:14:13.450Z,89
2022-12-08T13:17:38.697Z,89
2022-12-08T13:21:03.979Z,88
2022-12-08T13:24:29.245Z,89
2022-12-08T13:27:54.565Z,88
2022-12-08T13:31:19.913Z,88
2022-12-08T13:34:45.148Z,89
2022-12-08T13:38:10.408Z,88
2022-12-08T13:41:35.669Z,87
2022-12-08T13:45:21.744Z,88
2022-12-08T13:48:56.157Z,88
2022-12-08T13:53:34.343Z,87
2022-12-08T13:58:41.919Z,87
2022-12-08T14:02:07.160Z,87
2022-12-08T14:06:03.068Z,87
2022-12-08T14:09:05.210Z,87
2022-12-08T14:12:24.657Z,87
2022-12-08T14:15:50.330Z,87
2022-12-08T14:19:15.818Z,86
2022-12-08T14:22:41.411Z,87
2022-12-08T14:26:06.676Z,87
2022-12-08T14:29:32.092Z,87
2022-12-08T15:04:52.074Z,87
2022-12-08T15:08:17.497Z,87
2022-12-08T15:11:42.807Z,88
2022-12-08T15:15:08.183Z,88
2022-12-08T15:18:33.556Z,88
2022-12-08T15:21:58.989Z,88
2022-12-08T15:25:24.324Z,88
2022-12-08T15:28:49.663Z,88
2022-12-08T15:32:15.011Z,88
2022-12-08T15:35:41.059Z,88
2022-12-08T15:39:05.708Z,88
2022-12-08T15:42:30.949Z,88
2022-12-08T15:46:00.204Z,88
2022-12-08T15:49:21.635Z,87
2022-12-08T15:52:47.025Z,87
2022-12-08T15:56:30.086Z,88
2022-12-08T15:59:40.178Z,87
2022-12-08T16:03:22.905Z,88
2022-12-08T16:07:12.762Z,87
2022-12-08T16:10:23.358Z,87
2022-12-08T16:13:58.417Z,86
2022-12-08T16:17:23.028Z,86
2022-12-08T16:24:13.883Z,85
2022-12-08T16:31:07.621Z,85
2022-12-08T16:34:29.611Z,86
2022-12-08T16:37:54.889Z,87
2022-12-08T16:41:20.178Z,87
2022-12-08T16:44:45.462Z,87
2022-12-08T16:48:10.734Z,87
2022-12-08T16:51:35.989Z,87
2022-12-08T16:55:01.607Z,87
2022-12-08T16:58:28.791Z,88
2022-12-08T17:01:54.136Z,88
2022-12-08T17:05:19.479Z,88
2022-12-08T17:08:46.996Z,87
2022-12-08T17:12:12.242Z,87
2022-12-08T17:15:37.854Z,88
2022-12-08T17:19:03.132Z,88
2022-12-08T17:22:28.412Z,89
2022-12-08T17:25:53.636Z,89
2022-12-08T17:29:18.891Z,89
2022-12-08T17:32:44.133Z,89
2022-12-08T17:36:09.389Z,90
2022-12-08T17:39:34.659Z,90
2022-12-08T17:42:59.935Z,91
2022-12-08T17:46:25.298Z,91
2022-12-08T17:49:50.430Z,91
2022-12-08T17:53:15.667Z,90
2022-12-08T17:56:40.952Z,91
2022-12-08T18:00:06.495Z,91
2022-12-08T18:03:31.422Z,91
2022-12-08T18:06:56.668Z,91
2022-12-08T18:10:21.893Z,90
2022-12-08T18:13:47.174Z,90
2022-12-08T18:17:12.435Z,90
2022-12-08T18:20:37.627Z,90
2022-12-08T18:24:02.876Z,90
2022-12-08T18:27:28.114Z,89
2022-12-08T18:30:53.450Z,89
2022-12-08T18:34:18.671Z,90
2022-12-08T18:37:43.924Z,90
2022-12-08T18:41:09.171Z,90
2022-12-08T18:44:34.461Z,90
2022-12-08T18:47:59.721Z,90
2022-12-08T18:51:24.959Z,91
2022-12-08T18:55:05.580Z,91
2022-12-08T18:58:15.477Z,91
2022-12-08T19:01:40.783Z,91
2022-12-08T19:05:05.991Z,91
2022-12-08T19:08:31.742Z,91
2022-12-08T19:11:56.426Z,91
2022-12-08T19:15:21.684Z,90
2022-12-08T19:18:46.920Z,90
2022-12-08T19:22:12.220Z,90
2022-12-08T19:25:37.384Z,90
2022-12-08T19:29:02.648Z,90
2022-12-08T19:32:27.874Z,89
2022-12-08T19:35:53.128Z,89
2022-12-08T19:39:18.383Z,90
2022-12-08T19:42:43.613Z,90
2022-12-08T19:46:09.016Z,90
2022-12-08T19:49:34.166Z,90
2022-12-08T19:52:59.486Z,89
2022-12-08T19:56:24.959Z,90
2022-12-08T19:59:54.730Z,90
2022-12-08T20:03:15.739Z,89
2022-12-08T20:06:41.020Z,89
2022-12-08T20:10:06.709Z,89
2022-12-08T20:13:31.734Z,89
2022-12-08T20:16:57.182Z,89
2022-12-08T20:20:22.489Z,90
2022-12-08T20:23:47.825Z,89
2022-12-08T20:27:13.208Z,89
2022-12-08T20:30:38.945Z,89
2022-12-08T20:34:04.197Z,89
2022-12-08T20:37:29.654Z,89
2022-12-08T20:40:55.044Z,89
2022-12-08T20:44:20.372Z,90
2022-12-08T20:47:45.650Z,90
2022-12-08T20:51:10.948Z,90
2022-12-08T20:54:36.477Z,89
2022-12-08T20:58:01.917Z,90
2022-12-08T21:01:27.203Z,90
2022-12-08T21:04:52.490Z,90
2022-12-08T21:08:17.831Z,90
2022-12-08T21:11:43.091Z,90
2022-12-08T21:15:08.441Z,89
2022-12-08T21:18:39.095Z,89
2022-12-08T21:21:58.923Z,89
2022-12-08T21:25:24.327Z,88
2022-12-08T21:28:49.474Z,88
2022-12-08T21:32:14.900Z,88
2022-12-08T21:35:40.046Z,88
2022-12-08T21:39:05.207Z,88
2022-12-08T21:42:34.026Z,88
2022-12-08T21:45:55.888Z,87
2022-12-08T21:49:21.098Z,87
2022-12-08T21:52:46.204Z,86
2022-12-08T21:56:11.462Z,86
2022-12-08T21:59:36.870Z,86
2022-12-08T22:03:02.243Z,86
2022-12-08T22:06:27.210Z,87
2022-12-08T22:09:52.753Z,86
2022-12-08T22:13:17.813Z,87
2022-12-08T22:16:43.329Z,86
2022-12-08T22:20:08.596Z,86
2022-12-08T22:23:34.323Z,86
2022-12-08T22:27:00.452Z,85
2022-12-08T22:30:26.609Z,86
2022-12-08T22:33:52.757Z,86
2022-12-08T22:37:18.891Z,86
2022-12-08T22:40:45.130Z,86
2022-12-08T22:44:11.235Z,86
2022-12-08T22:47:37.397Z,86
2022-12-08T22:51:03.545Z,86
2022-12-08T22:54:29.850Z,87
2022-12-08T22:57:55.220Z,87
2022-12-08T23:01:20.492Z,87
2022-12-08T23:04:45.888Z,87
2022-12-08T23:08:11.035Z,87
2022-12-08T23:11:36.278Z,87
2022-12-08T23:15:01.598Z,86
2022-12-08T23:18:26.874Z,87
2022-12-08T23:21:52.190Z,86
2022-12-08T23:25:17.517Z,86
2022-12-08T23:28:42.707Z,86
2022-12-08T23:32:08.055Z,86
2022-12-08T23:35:33.209Z,85
2022-12-08T23:38:58.479Z,85
2022-12-08T23:42:23.830Z,85
2022-12-08T23:45:49.063Z,85
2022-12-08T23:49:14.307Z,85
2022-12-08T23:52:40.119Z,84
2022-12-08T23:56:04.800Z,84
2022-12-08T23:59:30.054Z,85
